createdAt,value
2022-08-10T00:00:04.525Z,100916.22
2022-08-10T00:02:56.625Z,100914.56
2022-08-10T00:05:53.133Z,100901.31
2022-08-10T00:08:42.528Z,100914.56
2022-08-10T00:11:31.080Z,100912.69
2022-08-10T00:14:19.729Z,100916.34
2022-08-10T00:17:08.176Z,100905.63
2022-08-10T00:20:03.116Z,100901.25
2022-08-10T00:22:57.723Z,100891.72
2022-08-10T00:25:46.327Z,100896.22
2022-08-10T00:28:34.902Z,100895.94
2022-08-10T00:31:23.369Z,100901.31
2022-08-10T00:34:11.813Z,100904.94
2022-08-10T00:37:01.010Z,100900.41
2022-08-10T00:39:49.630Z,100896.03
2022-08-10T00:42:38.114Z,100887.41
2022-08-10T00:45:26.248Z,100889.97
2022-08-10T00:48:14.450Z,100882.09
2022-08-10T00:51:02.765Z,100885.84
2022-08-10T00:53:51.293Z,100879.59
2022-08-10T00:57:17.110Z,100882.31
2022-08-10T00:59:58.575Z,100883.25
2022-08-10T01:02:48.418Z,100883.25
2022-08-10T01:06:00.565Z,100872.53
2022-08-10T01:09:01.785Z,100879.59
2022-08-10T01:12:38.065Z,100884.06
2022-08-10T01:15:32.677Z,100881.34
2022-08-10T01:18:37.642Z,100872.63
2022-08-10T01:21:53.227Z,100870.00
2022-08-10T01:24:53.515Z,100867.47
2022-08-10T01:28:21.454Z,100868.53
2022-08-10T01:31:16.825Z,100883.78
2022-08-10T01:34:19.387Z,100868.00
2022-08-10T01:37:14.993Z,100867.19
2022-08-10T01:40:07.276Z,100871.91
2022-08-10T01:43:07.974Z,100880.81
2022-08-10T01:46:00.021Z,100888.00
2022-08-10T01:48:54.697Z,100884.63
2022-08-10T01:51:56.934Z,100884.03
2022-08-10T01:54:51.287Z,100891.25
2022-08-10T01:57:43.604Z,100907.31
2022-08-10T02:00:36.860Z,100903.91
2022-08-10T02:03:26.237Z,100912.06
2022-08-10T02:06:16.397Z,100915.69
2022-08-10T02:09:07.826Z,100927.31
2022-08-10T02:12:07.066Z,100940.94
2022-08-10T02:19:51.813Z,100955.44
2022-08-10T02:22:41.393Z,100957.19
2022-08-10T02:25:42.486Z,100976.66
2022-08-10T02:28:34.481Z,100966.19
2022-08-10T02:31:25.153Z,100982.13
2022-08-10T02:34:16.513Z,100978.88
2022-08-10T02:37:10.786Z,100988.53
2022-08-10T02:39:59.535Z,100985.13
2022-08-10T02:45:18.780Z,100986.94
2022-08-10T02:46:18.249Z,100995.88
2022-08-10T02:49:21.710Z,100997.84
2022-08-10T02:52:22.137Z,101006.78
2022-08-10T02:55:41.655Z,101010.47
2022-08-10T02:58:41.019Z,101024.66
2022-08-10T03:01:34.353Z,101024.78
2022-08-10T03:04:55.542Z,101024.75
2022-08-10T03:07:53.547Z,101020.34
2022-08-10T03:10:44.294Z,101019.63
2022-08-10T03:13:33.985Z,101024.09
2022-08-10T03:16:23.534Z,101018.81
2022-08-10T03:20:35.846Z,101019.81
2022-08-10T03:22:21.356Z,101026.88
2022-08-10T03:25:12.333Z,101038.59
2022-08-10T03:28:01.441Z,101044.03
2022-08-10T03:30:50.376Z,101040.59
2022-08-10T03:33:41.554Z,101045.03
2022-08-10T03:36:42.691Z,101051.47
2022-08-10T03:39:33.499Z,101061.34
2022-08-10T03:42:24.478Z,101062.31
2022-08-10T03:45:13.339Z,101060.59
2022-08-10T03:48:04.322Z,101074.00
2022-08-10T03:50:52.975Z,101078.53
2022-08-10T03:54:03.588Z,101103.34
2022-08-10T03:56:50.415Z,101100.91
2022-08-10T03:59:39.233Z,101098.38
2022-08-10T04:02:46.582Z,101109.88
2022-08-10T04:05:38.594Z,101125.09
2022-08-10T04:08:27.601Z,101132.28
2022-08-10T04:11:16.033Z,101139.47
2022-08-10T04:14:35.591Z,101143.19
2022-08-10T04:17:18.384Z,101133.44
2022-08-10T04:20:34.193Z,101151.22
2022-08-10T04:23:27.656Z,101149.53
2022-08-10T04:26:17.006Z,101164.66
2022-08-10T04:29:05.872Z,101178.94
2022-08-10T04:31:54.394Z,101182.53
2022-08-10T04:34:44.980Z,101184.41
2022-08-10T04:37:35.005Z,101178.22
2022-08-10T04:40:29.332Z,101192.41
2022-08-10T04:43:19.341Z,101190.66
2022-08-10T04:46:42.576Z,101198.69
2022-08-10T04:49:54.243Z,101198.72
2022-08-10T04:52:25.269Z,101220.88
2022-08-10T04:55:13.581Z,101220.88
2022-08-10T04:58:01.731Z,101222.69
2022-08-10T05:00:50.235Z,101221.81
2022-08-10T05:04:36.186Z,101239.56
2022-08-10T05:06:47.257Z,101242.19
2022-08-10T05:10:03.614Z,101252.03
2022-08-10T05:12:43.890Z,101252.94
2022-08-10T05:15:32.398Z,101275.91
2022-08-10T05:18:20.782Z,101288.31
2022-08-10T05:21:09.178Z,101292.81
2022-08-10T05:23:57.447Z,101287.41
2022-08-10T05:27:00.297Z,101295.31
2022-08-10T05:30:01.504Z,101299.75
2022-08-10T05:32:58.951Z,101313.91
2022-08-10T05:35:56.916Z,101313.88
2022-08-10T05:38:47.355Z,101313.81
2022-08-10T05:41:41.365Z,101317.31
2022-08-10T05:44:34.907Z,101326.19
2022-08-10T05:47:23.704Z,101331.53
2022-08-10T05:50:14.075Z,101344.81
2022-08-10T05:53:59.233Z,101359.00
2022-08-10T05:56:11.420Z,101365.00
2022-08-10T05:58:59.559Z,101375.53
2022-08-10T06:02:33.899Z,101369.03
2022-08-10T06:05:30.753Z,101365.31
2022-08-10T06:08:26.884Z,101353.50
2022-08-10T06:12:27.009Z,101342.72
2022-08-10T06:14:43.668Z,101349.78
2022-08-10T06:17:41.639Z,101343.34
2022-08-10T06:20:35.919Z,101359.19
2022-08-10T06:23:28.635Z,101347.44
2022-08-10T06:26:21.102Z,101350.91
2022-08-10T06:29:15.349Z,101344.72
2022-08-10T06:32:05.522Z,101351.34
2022-08-10T06:35:11.347Z,101357.50
2022-08-10T06:38:03.447Z,101347.34
2022-08-10T06:40:57.455Z,101343.53
2022-08-10T06:43:57.760Z,101349.53
2022-08-10T06:46:51.277Z,101343.00
2022-08-10T06:49:39.591Z,101336.16
2022-08-10T06:52:31.032Z,101320.72
2022-08-10T06:55:39.821Z,101312.38
2022-08-10T06:58:36.414Z,101301.34
2022-08-10T07:01:34.695Z,101295.59
2022-08-10T07:04:32.291Z,101283.91
2022-08-10T07:07:27.852Z,101285.03
2022-08-10T07:10:20.405Z,101254.78
2022-08-10T07:13:10.119Z,101282.50
2022-08-10T07:16:00.796Z,101268.03
2022-08-10T07:18:49.698Z,101258.56
2022-08-10T07:24:34.765Z,101262.03
2022-08-10T07:27:25.188Z,101224.19
2022-08-10T07:30:14.192Z,101202.25
2022-08-10T07:33:04.019Z,101233.66
2022-08-10T07:35:52.654Z,101202.13
2022-08-10T07:38:41.438Z,101191.00
2022-08-10T07:41:32.069Z,101162.97
2022-08-10T07:44:21.444Z,101159.03
2022-08-10T07:47:53.906Z,101193.19
2022-08-10T07:50:35.269Z,101145.03
2022-08-10T07:53:28.560Z,101115.75
2022-08-10T07:56:45.449Z,101136.91
2022-08-10T07:59:38.621Z,101126.31
2022-08-10T08:02:34.070Z,101098.38
2022-08-10T08:05:59.232Z,101074.16
2022-08-10T08:08:40.028Z,101094.16
2022-08-10T08:11:29.634Z,101130.66
2022-08-10T08:14:22.011Z,101069.00
2022-08-10T08:17:12.493Z,101019.16
2022-08-10T08:20:04.794Z,101022.94
2022-08-10T08:24:10.410Z,101027.94
2022-08-10T08:26:24.670Z,101043.69
2022-08-10T08:29:19.573Z,101028.81
2022-08-10T08:32:08.740Z,101010.84
2022-08-10T08:35:08.263Z,100980.47
2022-08-10T08:38:31.370Z,100913.19
2022-08-10T08:41:47.592Z,100933.06
2022-08-10T08:44:59.788Z,100884.19
2022-08-10T08:48:24.656Z,100914.34
2022-08-10T08:52:09.647Z,100877.75
2022-08-10T08:54:59.866Z,100887.28
2022-08-10T08:58:06.030Z,100808.88
2022-08-10T09:01:38.320Z,100756.94
2022-08-10T09:05:06.828Z,100717.31
2022-08-10T09:08:41.976Z,100662.28
2022-08-10T09:12:00.317Z,100695.97
2022-08-10T09:15:06.188Z,100644.56
2022-08-10T09:18:06.211Z,100582.47
2022-08-10T09:21:12.248Z,100601.81
2022-08-10T09:24:32.160Z,100578.06
2022-08-10T09:27:45.586Z,100499.81
2022-08-10T09:31:21.525Z,100501.75
2022-08-10T09:36:21.067Z,100495.03
2022-08-10T09:38:03.208Z,100446.75
2022-08-10T09:41:32.760Z,100437.63
2022-08-10T09:45:07.083Z,100509.13
2022-08-10T09:48:39.695Z,100527.63
2022-08-10T09:52:27.867Z,100497.31
2022-08-10T09:56:17.822Z,100439.13
2022-08-10T09:59:26.882Z,100415.97
2022-08-10T10:02:52.718Z,100444.56
2022-08-10T10:06:04.432Z,100409.22
2022-08-10T10:09:10.107Z,100407.25
2022-08-10T10:12:36.515Z,100448.66
2022-08-10T10:16:02.037Z,100401.16
2022-08-10T10:19:04.907Z,100442.34
2022-08-10T10:22:11.808Z,100326.91
2022-08-10T10:25:25.487Z,100365.63
2022-08-10T10:29:24.783Z,100428.53
2022-08-10T10:32:36.911Z,100358.19
2022-08-10T10:35:40.595Z,100261.88
2022-08-10T10:38:38.246Z,100297.81
2022-08-10T10:42:14.615Z,100261.88
2022-08-10T10:45:51.009Z,100351.56
2022-08-10T10:48:54.656Z,100321.25
2022-08-10T10:51:53.786Z,100348.00
2022-08-10T10:55:07.324Z,100284.63
2022-08-10T10:58:22.461Z,100273.56
2022-08-10T11:01:22.182Z,100183.88
2022-08-10T11:05:02.419Z,100273.81
2022-08-10T11:08:01.172Z,100224.63
2022-08-10T11:12:00.044Z,100201.03
2022-08-10T11:14:38.498Z,100247.63
2022-08-10T11:17:34.726Z,100145.38
2022-08-10T11:20:49.920Z,100200.03
2022-08-10T11:24:42.483Z,100245.94
2022-08-10T11:27:21.909Z,100194.91
2022-08-10T11:30:18.964Z,100147.47
2022-08-10T11:33:32.777Z,100180.88
2022-08-10T11:36:35.555Z,100149.56
2022-08-10T11:40:13.190Z,100165.59
2022-08-10T11:43:22.723Z,100120.34
2022-08-10T11:46:33.195Z,100119.63
2022-08-10T11:49:46.888Z,100133.78
2022-08-10T11:52:49.442Z,100217.25
2022-08-10T11:55:37.631Z,100097.19
2022-08-10T11:58:50.932Z,100229.97
2022-08-10T12:01:39.750Z,100231.03
2022-08-10T12:04:29.212Z,100184.53
2022-08-10T12:10:06.143Z,100164.44
2022-08-10T12:10:28.479Z,100099.78
2022-08-10T12:14:19.631Z,100201.66
2022-08-10T12:17:15.375Z,100016.34
2022-08-10T12:20:37.842Z,100134.63
2022-08-10T12:24:03.314Z,100116.53
2022-08-10T12:27:03.721Z,100173.13
2022-08-10T12:30:04.779Z,100134.50
2022-08-10T12:33:03.723Z,100080.91
2022-08-10T12:36:18.636Z,100070.03
2022-08-10T12:39:17.970Z,100021.84
2022-08-10T12:42:38.643Z,100058.31
2022-08-10T12:46:01.925Z,100059.09
2022-08-10T12:48:56.380Z,99960.41
2022-08-10T12:52:07.656Z,100071.19
2022-08-10T12:54:59.674Z,100044.63
2022-08-10T12:57:56.727Z,100079.81
2022-08-10T13:01:12.749Z,100044.47
2022-08-10T13:04:22.915Z,100058.59
2022-08-10T13:07:11.220Z,100078.53
2022-08-10T13:10:19.681Z,99971.34
2022-08-10T13:13:08.780Z,100043.59
2022-08-10T13:15:58.493Z,100106.94
2022-08-10T13:18:47.331Z,99988.41
2022-08-10T13:21:38.708Z,99971.41
2022-08-10T13:24:36.877Z,100072.56
2022-08-10T13:28:00.947Z,100084.56
2022-08-10T13:30:40.444Z,100114.28
2022-08-10T13:34:40.043Z,100007.44
2022-08-10T13:36:40.649Z,99945.94
2022-08-10T13:39:58.903Z,99993.00
2022-08-10T13:42:50.097Z,100048.84
2022-08-10T13:45:47.700Z,100018.97
2022-08-10T13:48:40.000Z,100117.84
2022-08-10T13:51:57.540Z,99976.03
2022-08-10T13:54:42.914Z,100019.75
2022-08-10T13:57:35.479Z,100024.38
2022-08-10T14:00:41.493Z,100069.78
2022-08-10T14:03:37.627Z,99959.03
2022-08-10T14:06:29.828Z,99912.72
2022-08-10T14:09:24.869Z,100036.19
2022-08-10T14:12:14.120Z,100006.78
2022-08-10T14:15:07.105Z,100003.31
2022-08-10T14:17:58.327Z,100009.44
2022-08-10T14:20:47.305Z,99920.38
2022-08-10T14:23:41.239Z,99916.28
2022-08-10T14:26:32.056Z,99876.78
2022-08-10T14:29:23.825Z,99942.81
2022-08-10T14:32:16.207Z,99994.88
2022-08-10T14:36:20.492Z,99906.38
2022-08-10T14:38:21.263Z,99873.13
2022-08-10T14:42:02.942Z,99944.13
2022-08-10T14:45:10.937Z,99964.41
2022-08-10T14:48:23.585Z,100032.41
2022-08-10T14:51:26.581Z,99925.34
2022-08-10T14:54:17.455Z,99930.47
2022-08-10T14:57:11.494Z,99879.28
2022-08-10T15:00:24.228Z,99923.19
2022-08-10T15:03:11.217Z,99830.50
2022-08-10T15:06:36.985Z,99878.28
2022-08-10T15:09:59.851Z,99898.88
2022-08-10T15:12:50.941Z,99935.38
2022-08-10T15:16:02.240Z,99817.41
2022-08-10T15:18:57.964Z,99864.97
2022-08-10T15:21:47.744Z,99913.75
2022-08-10T15:25:00.442Z,99849.19
2022-08-10T15:27:55.338Z,99879.09
2022-08-10T15:30:48.080Z,99836.75
2022-08-10T15:34:16.046Z,100028.47
2022-08-10T15:37:39.450Z,99929.75
2022-08-10T15:40:30.855Z,99977.41
2022-08-10T15:43:26.592Z,99955.19
2022-08-10T15:46:31.860Z,99966.31
2022-08-10T15:50:05.318Z,99854.44
2022-08-10T15:53:00.559Z,99865.25
2022-08-10T15:55:55.549Z,99914.88
2022-08-10T15:58:55.994Z,99898.75
2022-08-10T16:02:04.188Z,99917.31
2022-08-10T16:05:14.233Z,99839.31
2022-08-10T16:08:09.281Z,99867.59
2022-08-10T16:11:04.183Z,99815.47
2022-08-10T16:14:01.247Z,99891.69
2022-08-10T16:16:57.585Z,99866.13
2022-08-10T16:19:53.166Z,99824.88
2022-08-10T16:22:41.660Z,99804.53
2022-08-10T16:25:51.300Z,99782.03
2022-08-10T16:29:08.439Z,99895.13
2022-08-10T16:31:59.813Z,99794.03
2022-08-10T16:34:51.065Z,99800.06
2022-08-10T16:37:56.585Z,99906.25
2022-08-10T16:40:49.677Z,99815.66
2022-08-10T16:43:38.798Z,99798.47
2022-08-10T16:46:27.773Z,99814.03
2022-08-10T16:49:18.147Z,99789.75
2022-08-10T16:52:08.013Z,99808.13
2022-08-10T16:55:17.028Z,99836.81
2022-08-10T16:58:28.130Z,99859.47
2022-08-10T17:01:23.857Z,99888.63
2022-08-10T17:04:14.509Z,99878.53
2022-08-10T17:07:14.284Z,99880.13
2022-08-10T17:10:08.073Z,99792.59
2022-08-10T17:12:58.522Z,99849.56
2022-08-10T17:15:58.109Z,99851.94
2022-08-10T17:18:48.274Z,99848.03
2022-08-10T17:21:51.484Z,99913.16
2022-08-10T17:25:08.921Z,99854.81
2022-08-10T17:28:05.030Z,99816.22
2022-08-10T17:31:39.800Z,99884.66
2022-08-10T17:34:23.742Z,99846.81
2022-08-10T17:37:22.349Z,99842.84
2022-08-10T17:40:19.342Z,99870.38
2022-08-10T17:43:10.019Z,99870.72
2022-08-10T17:46:00.197Z,99817.31
2022-08-10T17:48:48.776Z,99835.47
2022-08-10T17:51:43.539Z,99832.19
2022-08-10T17:54:36.820Z,99843.25
2022-08-10T17:57:27.012Z,99847.34
2022-08-10T18:00:16.055Z,99832.66
2022-08-10T18:03:05.420Z,99892.56
2022-08-10T18:06:01.891Z,99891.50
2022-08-10T18:09:01.201Z,99902.44
2022-08-10T18:12:03.658Z,99888.00
2022-08-10T18:15:05.256Z,99929.41
2022-08-10T18:18:01.744Z,99943.94
2022-08-10T18:21:12.960Z,100003.81
2022-08-10T18:24:07.751Z,100012.66
2022-08-10T18:26:57.587Z,100033.75
2022-08-10T18:29:55.222Z,99968.47
2022-08-10T18:32:56.417Z,99938.88
2022-08-10T18:35:46.378Z,99980.88
2022-08-10T18:38:38.434Z,100007.41
2022-08-10T18:41:37.388Z,100088.47
2022-08-10T18:44:36.102Z,100018.03
2022-08-10T18:47:41.626Z,100058.75
2022-08-10T18:50:54.400Z,100101.09
2022-08-10T18:53:52.086Z,100046.09
2022-08-10T18:56:57.998Z,100068.13
2022-08-10T19:00:10.379Z,100063.75
2022-08-10T19:03:31.582Z,100092.31
2022-08-10T19:06:41.335Z,100108.19
2022-08-10T19:09:55.105Z,100110.28
2022-08-10T19:12:58.847Z,100110.88
2022-08-10T19:16:15.007Z,100147.50
2022-08-10T19:19:41.238Z,100113.38
2022-08-10T19:23:05.741Z,100153.59
2022-08-10T19:26:40.938Z,100143.97
2022-08-10T19:30:11.891Z,100143.59
2022-08-10T19:33:25.438Z,100213.50
2022-08-10T19:36:38.379Z,100236.50
2022-08-10T19:39:53.467Z,100217.38
2022-08-10T19:42:59.477Z,100210.06
2022-08-10T19:46:02.423Z,100203.78
2022-08-10T19:49:31.149Z,100184.47
2022-08-10T19:52:41.376Z,100231.50
2022-08-10T19:55:47.120Z,100229.47
2022-08-10T19:58:54.003Z,100231.06
2022-08-10T20:01:54.511Z,100237.97
2022-08-10T20:05:10.151Z,100233.63
2022-08-10T20:08:19.781Z,100218.50
2022-08-10T20:11:44.705Z,100250.91
2022-08-10T20:14:42.839Z,100254.19
2022-08-10T20:17:45.116Z,100267.91
2022-08-10T20:21:25.661Z,100240.06
2022-08-10T20:24:45.373Z,100286.28
2022-08-10T20:28:05.794Z,100307.25
2022-08-10T20:31:17.135Z,100350.53
2022-08-10T20:34:16.993Z,100374.53
2022-08-10T20:37:44.986Z,100382.00
2022-08-10T20:40:48.547Z,100417.56
2022-08-10T20:44:17.375Z,100423.88
2022-08-10T20:47:18.788Z,100427.34
2022-08-10T20:50:37.234Z,100450.53
2022-08-10T20:53:29.584Z,100457.34
2022-08-10T20:56:48.361Z,100453.09
2022-08-10T21:00:04.527Z,100472.75
2022-08-10T21:03:07.543Z,100489.88
2022-08-10T21:06:43.161Z,100472.69
2022-08-10T21:09:47.109Z,100490.53
2022-08-10T21:13:11.978Z,100519.50
2022-08-10T21:16:47.438Z,100516.13
2022-08-10T21:19:53.891Z,100491.72
2022-08-10T21:22:49.562Z,100517.91
2022-08-10T21:25:58.962Z,100530.81
2022-08-10T21:29:01.799Z,100508.66
2022-08-10T21:32:23.371Z,100525.13
2022-08-10T21:35:15.540Z,100555.69
2022-08-10T21:38:54.091Z,100563.13
2022-08-10T21:42:31.969Z,100563.41
2022-08-10T21:45:57.840Z,100556.44
2022-08-10T21:49:36.907Z,100573.13
2022-08-10T21:53:00.838Z,100569.97
2022-08-10T21:56:24.926Z,100584.53
2022-08-10T22:00:23.909Z,100574.59
2022-08-10T22:03:40.169Z,100593.38
2022-08-10T22:06:58.340Z,100575.63
2022-08-10T22:10:08.357Z,100593.53
2022-08-10T22:13:21.713Z,100623.28
2022-08-10T22:17:06.887Z,100625.75
2022-08-10T22:20:49.738Z,100631.91
2022-08-10T22:24:19.601Z,100648.91
2022-08-10T22:27:55.389Z,100664.25
2022-08-10T22:31:31.617Z,100652.47
2022-08-10T22:35:12.993Z,100687.66
2022-08-10T22:40:10.203Z,100689.13
2022-08-10T22:43:11.058Z,100684.81
2022-08-10T22:46:22.928Z,100713.78
2022-08-10T22:49:12.115Z,100748.00
2022-08-10T22:52:17.229Z,100743.72
2022-08-10T22:55:32.296Z,100737.56
2022-08-10T22:58:39.219Z,100765.25
2022-08-10T23:01:40.907Z,100782.47
2022-08-10T23:04:35.909Z,100788.81
2022-08-10T23:07:29.817Z,100789.50
2022-08-10T23:10:21.565Z,100784.69
2022-08-10T23:13:14.250Z,100762.56
2022-08-10T23:16:46.371Z,100793.63
2022-08-10T23:20:15.777Z,100810.78
2022-08-10T23:23:10.147Z,100798.56
2022-08-10T23:26:00.734Z,100785.47
2022-08-10T23:28:58.257Z,100782.72
2022-08-10T23:32:08.406Z,100772.16
2022-08-10T23:36:04.315Z,100778.22
2022-08-10T23:38:09.403Z,100771.72
2022-08-10T23:41:02.683Z,100763.97
2022-08-10T23:44:04.813Z,100765.97
2022-08-10T23:46:53.827Z,100768.16
2022-08-10T23:49:44.728Z,100769.13
2022-08-10T23:52:34.726Z,100783.97
2022-08-10T23:55:31.259Z,100786.50
2022-08-10T23:58:35.504Z,100789.44
